sensor_id;sensor_type;location;lat;lon;timestamp;temperature;humidity
13585;DHT22;6863;48.402;9.994;2023-03-01T00:00:40;-0.30;99.20
13585;DHT22;6863;48.402;9.994;2023-03-01T00:03:06;-0.30;99.20
13585;DHT22;6863;48.402;9.994;2023-03-01T00:05:31;-0.30;99.30
13585;DHT22;6863;48.402;9.994;2023-03-01T00:07:57;-0.30;99.40
13585;DHT22;6863;48.402;9.994;2023-03-01T00:10:23;-0.30;99.50
13585;DHT22;6863;48.402;9.994;2023-03-01T00:12:48;-0.30;99.50
13585;DHT22;6863;48.402;9.994;2023-03-01T00:15:14;-0.40;99.60
13585;DHT22;6863;48.402;9.994;2023-03-01T00:17:40;-0.30;99.60
13585;DHT22;6863;48.402;9.994;2023-03-01T00:20:06;-0.40;99.80
13585;DHT22;6863;48.402;9.994;2023-03-01T00:22:36;-0.30;99.90
13585;DHT22;6863;48.402;9.994;2023-03-01T00:25:02;-0.30;99.80
13585;DHT22;6863;48.402;9.994;2023-03-01T00:27:28;-0.30;99.80
13585;DHT22;6863;48.402;9.994;2023-03-01T00:29:53;-0.30;99.80
13585;DHT22;6863;48.402;9.994;2023-03-01T00:32:19;-0.20;99.70
13585;DHT22;6863;48.402;9.994;2023-03-01T00:34:45;-0.20;99.60
13585;DHT22;6863;48.402;9.994;2023-03-01T00:37:20;-0.20;99.50
13585;DHT22;6863;48.402;9.994;2023-03-01T00:39:47;-0.20;99.50
13585;DHT22;6863;48.402;9.994;2023-03-01T00:42:12;-0.10;99.50
13585;DHT22;6863;48.402;9.994;2023-03-01T00:44:38;-0.10;99.40
13585;DHT22;6863;48.402;9.994;2023-03-01T00:47:03;-0.10;99.50
13585;DHT22;6863;48.402;9.994;2023-03-01T00:49:29;-0.10;99.40
13585;DHT22;6863;48.402;9.994;2023-03-01T00:51:55;-0.10;99.40
13585;DHT22;6863;48.402;9.994;2023-03-01T00:54:20;-0.10;99.20
13585;DHT22;6863;48.402;9.994;2023-03-01T00:56:46;-0.10;99.30
13585;DHT22;6863;48.402;9.994;2023-03-01T00:59:12;-0.10;99.30
13585;DHT22;6863;48.402;9.994;2023-03-01T01:01:37;0.00;99.30
13585;DHT22;6863;48.402;9.994;2023-03-01T01:04:06;0.00;99.20
13585;DHT22;6863;48.402;9.994;2023-03-01T01:06:39;0.00;99.00
13585;DHT22;6863;48.402;9.994;2023-03-01T01:09:09;0.00;99.00
13585;DHT22;6863;48.402;9.994;2023-03-01T01:11:35;0.00;99.40
13585;DHT22;6863;48.402;9.994;2023-03-01T01:14:02;0.10;99.10
13585;DHT22;6863;48.402;9.994;2023-03-01T01:16:28;0.10;99.00
13585;DHT22;6863;48.402;9.994;2023-03-01T01:18:55;0.10;98.90
13585;DHT22;6863;48.402;9.994;2023-03-01T01:21:22;0.10;98.90
13585;DHT22;6863;48.402;9.994;2023-03-01T01:23:49;0.10;98.80
13585;DHT22;6863;48.402;9.994;2023-03-01T01:26:18;0.10;98.80
13585;DHT22;6863;48.402;9.994;2023-03-01T01:28:44;0.10;98.80
13585;DHT22;6863;48.402;9.994;2023-03-01T01:31:10;0.10;98.90
13585;DHT22;6863;48.402;9.994;2023-03-01T01:33:36;0.10;99.20
13585;DHT22;6863;48.402;9.994;2023-03-01T01:36:03;0.10;99.00
13585;DHT22;6863;48.402;9.994;2023-03-01T01:38:29;0.10;99.20
13585;DHT22;6863;48.402;9.994;2023-03-01T01:40:55;0.10;98.90
13585;DHT22;6863;48.402;9.994;2023-03-01T01:43:26;0.20;99.10
13585;DHT22;6863;48.402;9.994;2023-03-01T01:46:01;0.10;99.00
13585;DHT22;6863;48.402;9.994;2023-03-01T01:48:36;0.20;98.80
13585;DHT22;6863;48.402;9.994;2023-03-01T01:51:08;0.20;98.80
13585;DHT22;6863;48.402;9.994;2023-03-01T01:53:35;0.20;98.70
13585;DHT22;6863;48.402;9.994;2023-03-01T01:56:02;0.20;98.70
13585;DHT22;6863;48.402;9.994;2023-03-01T01:58:29;0.20;98.70
13585;DHT22;6863;48.402;9.994;2023-03-01T02:00:55;0.20;98.80
13585;DHT22;6863;48.402;9.994;2023-03-01T02:03:28;0.20;98.80
13585;DHT22;6863;48.402;9.994;2023-03-01T02:06:04;0.20;98.70
13585;DHT22;6863;48.402;9.994;2023-03-01T02:08:32;0.20;98.80
13585;DHT22;6863;48.402;9.994;2023-03-01T02:10:59;0.20;98.70
13585;DHT22;6863;48.402;9.994;2023-03-01T02:13:26;0.20;98.70
13585;DHT22;6863;48.402;9.994;2023-03-01T02:15:52;0.20;98.80
13585;DHT22;6863;48.402;9.994;2023-03-01T02:18:20;0.20;98.90
13585;DHT22;6863;48.402;9.994;2023-03-01T02:20:54;0.10;98.80
13585;DHT22;6863;48.402;9.994;2023-03-01T02:23:22;0.10;98.90
13585;DHT22;6863;48.402;9.994;2023-03-01T02:26:09;0.10;98.90
13585;DHT22;6863;48.402;9.994;2023-03-01T02:28:38;0.20;99.00
13585;DHT22;6863;48.402;9.994;2023-03-01T02:31:07;0.20;98.90
13585;DHT22;6863;48.402;9.994;2023-03-01T02:33:53;0.20;98.80
13585;DHT22;6863;48.402;9.994;2023-03-01T02:36:29;0.20;98.80
13585;DHT22;6863;48.402;9.994;2023-03-01T02:38:57;0.20;98.80
13585;DHT22;6863;48.402;9.994;2023-03-01T02:41:26;0.20;98.70
13585;DHT22;6863;48.402;9.994;2023-03-01T02:43:53;0.20;98.80
13585;DHT22;6863;48.402;9.994;2023-03-01T02:46:21;0.20;98.70
13585;DHT22;6863;48.402;9.994;2023-03-01T02:48:50;0.20;98.70
13585;DHT22;6863;48.402;9.994;2023-03-01T02:51:42;0.20;98.80
13585;DHT22;6863;48.402;9.994;2023-03-01T02:54:21;0.20;98.80
13585;DHT22;6863;48.402;9.994;2023-03-01T02:56:48;0.20;98.80
13585;DHT22;6863;48.402;9.994;2023-03-01T02:59:17;0.20;98.90
13585;DHT22;6863;48.402;9.994;2023-03-01T03:01:43;0.20;98.90
13585;DHT22;6863;48.402;9.994;2023-03-01T03:04:12;0.20;98.90
13585;DHT22;6863;48.402;9.994;2023-03-01T03:06:42;0.20;99.00
13585;DHT22;6863;48.402;9.994;2023-03-01T03:09:08;0.20;99.10
13585;DHT22;6863;48.402;9.994;2023-03-01T03:11:34;0.30;99.00
13585;DHT22;6863;48.402;9.994;2023-03-01T03:13:59;0.30;99.00
13585;DHT22;6863;48.402;9.994;2023-03-01T03:16:25;0.20;98.90
13585;DHT22;6863;48.402;9.994;2023-03-01T03:18:51;0.20;98.90
13585;DHT22;6863;48.402;9.994;2023-03-01T03:21:17;0.20;98.90
13585;DHT22;6863;48.402;9.994;2023-03-01T03:23:43;0.20;99.00
13585;DHT22;6863;48.402;9.994;2023-03-01T03:26:09;0.20;98.80
13585;DHT22;6863;48.402;9.994;2023-03-01T03:28:39;0.30;98.90
13585;DHT22;6863;48.402;9.994;2023-03-01T03:31:07;0.20;98.70
13585;DHT22;6863;48.402;9.994;2023-03-01T03:33:42;0.30;98.80
13585;DHT22;6863;48.402;9.994;2023-03-01T03:36:08;0.30;98.80
13585;DHT22;6863;48.402;9.994;2023-03-01T03:38:39;0.20;98.70
13585;DHT22;6863;48.402;9.994;2023-03-01T03:41:08;0.30;98.80
13585;DHT22;6863;48.402;9.994;2023-03-01T03:43:35;0.30;98.60
13585;DHT22;6863;48.402;9.994;2023-03-01T03:46:04;0.30;98.50
13585;DHT22;6863;48.402;9.994;2023-03-01T03:48:40;0.30;98.50
13585;DHT22;6863;48.402;9.994;2023-03-01T03:51:07;0.30;98.50
13585;DHT22;6863;48.402;9.994;2023-03-01T03:53:33;0.20;98.50
13585;DHT22;6863;48.402;9.994;2023-03-01T03:56:01;0.20;98.50
13585;DHT22;6863;48.402;9.994;2023-03-01T03:58:27;0.20;98.50
13585;DHT22;6863;48.402;9.994;2023-03-01T04:00:55;0.20;98.60
13585;DHT22;6863;48.402;9.994;2023-03-01T04:03:22;0.20;98.50
13585;DHT22;6863;48.402;9.994;2023-03-01T04:05:52;0.20;98.50
13585;DHT22;6863;48.402;9.994;2023-03-01T04:08:24;0.20;98.60
13585;DHT22;6863;48.402;9.994;2023-03-01T04:10:52;0.20;98.60
13585;DHT22;6863;48.402;9.994;2023-03-01T04:13:20;0.20;98.60
13585;DHT22;6863;48.402;9.994;2023-03-01T04:15:54;0.20;98.70
13585;DHT22;6863;48.402;9.994;2023-03-01T04:18:25;0.20;98.60
13585;DHT22;6863;48.402;9.994;2023-03-01T04:21:17;0.20;98.70
13585;DHT22;6863;48.402;9.994;2023-03-01T04:23:54;0.20;98.70
13585;DHT22;6863;48.402;9.994;2023-03-01T04:26:23;0.20;98.70
13585;DHT22;6863;48.402;9.994;2023-03-01T04:28:52;0.10;98.60
13585;DHT22;6863;48.402;9.994;2023-03-01T04:31:19;0.10;98.60
13585;DHT22;6863;48.402;9.994;2023-03-01T04:34:05;0.10;98.70
13585;DHT22;6863;48.402;9.994;2023-03-01T04:36:31;0.10;98.80
13585;DHT22;6863;48.402;9.994;2023-03-01T04:38:56;0.10;98.80
13585;DHT22;6863;48.402;9.994;2023-03-01T04:41:25;0.10;98.90
13585;DHT22;6863;48.402;9.994;2023-03-01T04:43:57;0.10;98.90
13585;DHT22;6863;48.402;9.994;2023-03-01T04:46:25;0.10;98.80
13585;DHT22;6863;48.402;9.994;2023-03-01T04:48:51;0.10;98.70
13585;DHT22;6863;48.402;9.994;2023-03-01T04:51:25;0.10;98.70
13585;DHT22;6863;48.402;9.994;2023-03-01T04:53:51;0.10;98.90
13585;DHT22;6863;48.402;9.994;2023-03-01T04:56:19;0.10;98.70
13585;DHT22;6863;48.402;9.994;2023-03-01T04:58:49;0.10;98.70
13585;DHT22;6863;48.402;9.994;2023-03-01T05:01:18;0.10;98.80
13585;DHT22;6863;48.402;9.994;2023-03-01T05:03:48;0.10;98.80
13585;DHT22;6863;48.402;9.994;2023-03-01T05:06:20;0.10;98.80
13585;DHT22;6863;48.402;9.994;2023-03-01T05:08:51;0.10;98.90
13585;DHT22;6863;48.402;9.994;2023-03-01T05:11:27;0.10;98.80
13585;DHT22;6863;48.402;9.994;2023-03-01T05:14:01;0.10;98.80
13585;DHT22;6863;48.402;9.994;2023-03-01T05:16:36;0.20;98.90
13585;DHT22;6863;48.402;9.994;2023-03-01T05:19:03;0.10;98.90
13585;DHT22;6863;48.402;9.994;2023-03-01T05:21:44;0.10;98.90
13585;DHT22;6863;48.402;9.994;2023-03-01T05:24:38;0.00;99.30
13585;DHT22;6863;48.402;9.994;2023-03-01T05:27:04;0.00;99.10
13585;DHT22;6863;48.402;9.994;2023-03-01T05:29:31;-0.10;99.30
13585;DHT22;6863;48.402;9.994;2023-03-01T05:32:05;-0.20;99.50
13585;DHT22;6863;48.402;9.994;2023-03-01T05:34:33;-0.20;99.80
13585;DHT22;6863;48.402;9.994;2023-03-01T05:36:59;-0.20;99.80
13585;DHT22;6863;48.402;9.994;2023-03-01T05:39:27;-0.10;99.70
13585;DHT22;6863;48.402;9.994;2023-03-01T05:41:54;-0.10;99.70
13585;DHT22;6863;48.402;9.994;2023-03-01T05:44:25;-0.10;99.60
13585;DHT22;6863;48.402;9.994;2023-03-01T05:46:54;-0.10;99.60
13585;DHT22;6863;48.402;9.994;2023-03-01T05:49:21;-0.10;99.40
13585;DHT22;6863;48.402;9.994;2023-03-01T05:51:51;-0.10;99.50
13585;DHT22;6863;48.402;9.994;2023-03-01T05:54:21;-0.10;99.40
13585;DHT22;6863;48.402;9.994;2023-03-01T05:56:47;-0.20;99.30
13585;DHT22;6863;48.402;9.994;2023-03-01T05:59:13;-0.30;99.40
13585;DHT22;6863;48.402;9.994;2023-03-01T06:01:40;-0.30;99.50
13585;DHT22;6863;48.402;9.994;2023-03-01T06:04:06;-0.30;99.60
13585;DHT22;6863;48.402;9.994;2023-03-01T06:06:37;-0.30;99.70
13585;DHT22;6863;48.402;9.994;2023-03-01T06:09:06;-0.30;99.70
13585;DHT22;6863;48.402;9.994;2023-03-01T06:11:37;-0.30;99.70
13585;DHT22;6863;48.402;9.994;2023-03-01T06:14:14;-0.30;99.70
13585;DHT22;6863;48.402;9.994;2023-03-01T06:16:41;-0.30;99.50
13585;DHT22;6863;48.402;9.994;2023-03-01T06:19:32;-0.30;99.40
13585;DHT22;6863;48.402;9.994;2023-03-01T06:22:01;-0.20;99.40
13585;DHT22;6863;48.402;9.994;2023-03-01T06:24:48;-0.20;99.50
13585;DHT22;6863;48.402;9.994;2023-03-01T06:27:54;-0.20;99.20
13585;DHT22;6863;48.402;9.994;2023-03-01T06:30:21;-0.20;99.20
13585;DHT22;6863;48.402;9.994;2023-03-01T06:32:50;-0.10;99.40
13585;DHT22;6863;48.402;9.994;2023-03-01T06:35:17;-0.10;99.20
13585;DHT22;6863;48.402;9.994;2023-03-01T06:37:44;0.00;98.90
13585;DHT22;6863;48.402;9.994;2023-03-01T06:40:14;-0.10;98.70
13585;DHT22;6863;48.402;9.994;2023-03-01T06:42:42;-0.10;98.70
13585;DHT22;6863;48.402;9.994;2023-03-01T06:45:09;-0.10;98.70
13585;DHT22;6863;48.402;9.994;2023-03-01T06:47:35;0.00;98.70
13585;DHT22;6863;48.402;9.994;2023-03-01T06:50:01;0.00;98.60
13585;DHT22;6863;48.402;9.994;2023-03-01T06:52:27;0.10;98.40
13585;DHT22;6863;48.402;9.994;2023-03-01T06:54:53;0.10;98.30
13585;DHT22;6863;48.402;9.994;2023-03-01T06:57:18;0.10;98.10
13585;DHT22;6863;48.402;9.994;2023-03-01T06:59:44;0.10;98.10
13585;DHT22;6863;48.402;9.994;2023-03-01T07:02:11;0.10;98.20
13585;DHT22;6863;48.402;9.994;2023-03-01T07:04:37;0.10;98.30
13585;DHT22;6863;48.402;9.994;2023-03-01T07:07:03;0.00;98.20
13585;DHT22;6863;48.402;9.994;2023-03-01T07:09:29;0.00;98.10
13585;DHT22;6863;48.402;9.994;2023-03-01T07:11:54;0.00;98.40
13585;DHT22;6863;48.402;9.994;2023-03-01T07:14:21;0.10;98.20
13585;DHT22;6863;48.402;9.994;2023-03-01T07:16:47;0.30;98.30
13585;DHT22;6863;48.402;9.994;2023-03-01T07:19:12;0.40;97.80
13585;DHT22;6863;48.402;9.994;2023-03-01T07:21:38;0.60;97.20
13585;DHT22;6863;48.402;9.994;2023-03-01T07:24:06;0.70;96.80
13585;DHT22;6863;48.402;9.994;2023-03-01T07:26:32;0.90;96.60
13585;DHT22;6863;48.402;9.994;2023-03-01T07:29:02;1.20;96.20
13585;DHT22;6863;48.402;9.994;2023-03-01T07:31:28;1.50;95.50
13585;DHT22;6863;48.402;9.994;2023-03-01T07:33:54;1.60;94.80
13585;DHT22;6863;48.402;9.994;2023-03-01T07:36:21;1.60;94.40
13585;DHT22;6863;48.402;9.994;2023-03-01T07:38:47;1.80;94.00
13585;DHT22;6863;48.402;9.994;2023-03-01T07:41:13;2.00;93.50
13585;DHT22;6863;48.402;9.994;2023-03-01T07:43:39;2.20;93.20
13585;DHT22;6863;48.402;9.994;2023-03-01T07:46:05;2.30;92.70
13585;DHT22;6863;48.402;9.994;2023-03-01T07:48:31;2.40;92.30
13585;DHT22;6863;48.402;9.994;2023-03-01T07:51:01;2.70;92.10
13585;DHT22;6863;48.402;9.994;2023-03-01T07:53:28;2.90;91.50
13585;DHT22;6863;48.402;9.994;2023-03-01T07:56:06;3.10;90.40
13585;DHT22;6863;48.402;9.994;2023-03-01T07:58:40;3.20;90.00
13585;DHT22;6863;48.402;9.994;2023-03-01T08:01:08;3.00;90.30
13585;DHT22;6863;48.402;9.994;2023-03-01T08:03:35;2.80;90.40
13585;DHT22;6863;48.402;9.994;2023-03-01T08:06:02;2.50;91.00
13585;DHT22;6863;48.402;9.994;2023-03-01T08:08:29;2.50;91.10
13585;DHT22;6863;48.402;9.994;2023-03-01T08:10:59;2.30;91.50
13585;DHT22;6863;48.402;9.994;2023-03-01T08:13:27;2.50;91.40
13585;DHT22;6863;48.402;9.994;2023-03-01T08:15:53;2.60;91.70
13585;DHT22;6863;48.402;9.994;2023-03-01T08:18:20;2.60;91.30
13585;DHT22;6863;48.402;9.994;2023-03-01T08:20:46;2.70;91.30
13585;DHT22;6863;48.402;9.994;2023-03-01T08:23:11;2.70;91.00
13585;DHT22;6863;48.402;9.994;2023-03-01T08:25:37;2.80;90.70
13585;DHT22;6863;48.402;9.994;2023-03-01T08:28:03;2.70;90.70
13585;DHT22;6863;48.402;9.994;2023-03-01T08:30:29;2.70;90.70
13585;DHT22;6863;48.402;9.994;2023-03-01T08:32:55;3.00;90.50
13585;DHT22;6863;48.402;9.994;2023-03-01T08:35:21;2.80;90.70
13585;DHT22;6863;48.402;9.994;2023-03-01T08:37:47;3.10;90.40
13585;DHT22;6863;48.402;9.994;2023-03-01T08:40:13;3.20;88.90
13585;DHT22;6863;48.402;9.994;2023-03-01T08:42:40;3.20;88.90
13585;DHT22;6863;48.402;9.994;2023-03-01T08:45:08;3.30;89.10
13585;DHT22;6863;48.402;9.994;2023-03-01T08:47:34;3.30;89.10
13585;DHT22;6863;48.402;9.994;2023-03-01T08:50:00;3.30;88.20
13585;DHT22;6863;48.402;9.994;2023-03-01T08:52:26;3.20;88.20
13585;DHT22;6863;48.402;9.994;2023-03-01T08:54:52;3.30;88.00
13585;DHT22;6863;48.402;9.994;2023-03-01T08:57:20;3.30;88.10
13585;DHT22;6863;48.402;9.994;2023-03-01T08:59:46;3.10;87.90
13585;DHT22;6863;48.402;9.994;2023-03-01T09:02:14;3.20;88.10
13585;DHT22;6863;48.402;9.994;2023-03-01T09:04:40;3.40;87.80
13585;DHT22;6863;48.402;9.994;2023-03-01T09:07:06;3.50;86.80
13585;DHT22;6863;48.402;9.994;2023-03-01T09:09:32;3.60;86.50
13585;DHT22;6863;48.402;9.994;2023-03-01T09:11:57;3.70;86.70
13585;DHT22;6863;48.402;9.994;2023-03-01T09:14:23;4.00;85.10
13585;DHT22;6863;48.402;9.994;2023-03-01T09:16:48;4.10;84.10
13585;DHT22;6863;48.402;9.994;2023-03-01T09:19:14;3.80;83.80
13585;DHT22;6863;48.402;9.994;2023-03-01T09:21:46;3.50;85.10
13585;DHT22;6863;48.402;9.994;2023-03-01T09:24:20;3.50;85.60
13585;DHT22;6863;48.402;9.994;2023-03-01T09:26:47;3.40;85.60
13585;DHT22;6863;48.402;9.994;2023-03-01T09:29:13;3.50;86.50
13585;DHT22;6863;48.402;9.994;2023-03-01T09:31:40;3.50;86.30
13585;DHT22;6863;48.402;9.994;2023-03-01T09:34:06;3.30;86.60
13585;DHT22;6863;48.402;9.994;2023-03-01T09:36:32;3.20;87.20
13585;DHT22;6863;48.402;9.994;2023-03-01T09:38:58;2.90;87.10
13585;DHT22;6863;48.402;9.994;2023-03-01T09:41:44;2.80;87.80
13585;DHT22;6863;48.402;9.994;2023-03-01T09:44:26;2.70;88.20
13585;DHT22;6863;48.402;9.994;2023-03-01T09:46:53;2.60;89.30
13585;DHT22;6863;48.402;9.994;2023-03-01T09:49:24;2.90;88.70
13585;DHT22;6863;48.402;9.994;2023-03-01T09:52:26;3.20;88.10
13585;DHT22;6863;48.402;9.994;2023-03-01T09:54:55;3.20;87.20
13585;DHT22;6863;48.402;9.994;2023-03-01T10:03:22;3.20;87.40
13585;DHT22;6863;48.402;9.994;2023-03-01T10:06:10;3.50;87.40
13585;DHT22;6863;48.402;9.994;2023-03-01T10:09:00;3.60;86.80
13585;DHT22;6863;48.402;9.994;2023-03-01T10:11:35;3.70;85.70
13585;DHT22;6863;48.402;9.994;2023-03-01T10:19:38;4.10;84.30
13585;DHT22;6863;48.402;9.994;2023-03-01T10:22:13;4.60;83.00
13585;DHT22;6863;48.402;9.994;2023-03-01T10:24:40;5.00;81.60
13585;DHT22;6863;48.402;9.994;2023-03-01T10:27:25;5.20;81.10
13585;DHT22;6863;48.402;9.994;2023-03-01T10:30:15;5.10;79.30
13585;DHT22;6863;48.402;9.994;2023-03-01T10:32:44;5.30;79.00
13585;DHT22;6863;48.402;9.994;2023-03-01T10:38:06;6.30;76.00
13585;DHT22;6863;48.402;9.994;2023-03-01T10:40:33;7.50;72.40
13585;DHT22;6863;48.402;9.994;2023-03-01T10:43:01;8.40;68.90
13585;DHT22;6863;48.402;9.994;2023-03-01T10:45:38;10.70;62.50
13585;DHT22;6863;48.402;9.994;2023-03-01T10:48:22;13.90;52.80
13585;DHT22;6863;48.402;9.994;2023-03-01T10:51:17;14.30;47.20
13585;DHT22;6863;48.402;9.994;2023-03-01T10:53:48;15.20;43.00
13585;DHT22;6863;48.402;9.994;2023-03-01T10:56:15;14.40;42.50
13585;DHT22;6863;48.402;9.994;2023-03-01T10:59:02;13.80;43.70
13585;DHT22;6863;48.402;9.994;2023-03-01T11:01:30;14.40;42.70
13585;DHT22;6863;48.402;9.994;2023-03-01T11:06:43;15.70;41.70
13585;DHT22;6863;48.402;9.994;2023-03-01T11:09:24;16.60;38.40
13585;DHT22;6863;48.402;9.994;2023-03-01T11:11:57;17.30;37.00
13585;DHT22;6863;48.402;9.994;2023-03-01T11:14:48;18.70;35.30
13585;DHT22;6863;48.402;9.994;2023-03-01T11:17:25;20.40;32.20
13585;DHT22;6863;48.402;9.994;2023-03-01T11:22:34;19.70;31.70
13585;DHT22;6863;48.402;9.994;2023-03-01T11:25:01;20.00;31.50
13585;DHT22;6863;48.402;9.994;2023-03-01T11:27:38;19.60;31.40
13585;DHT22;6863;48.402;9.994;2023-03-01T11:30:13;20.60;30.70
13585;DHT22;6863;48.402;9.994;2023-03-01T11:38:35;22.90;28.70
13585;DHT22;6863;48.402;9.994;2023-03-01T11:41:16;23.00;27.80
13585;DHT22;6863;48.402;9.994;2023-03-01T12:06:18;25.40;25.10
13585;DHT22;6863;48.402;9.994;2023-03-01T12:14:32;26.70;24.00
13585;DHT22;6863;48.402;9.994;2023-03-01T12:17:09;25.60;24.50
13585;DHT22;6863;48.402;9.994;2023-03-01T12:25:54;25.90;25.10
13585;DHT22;6863;48.402;9.994;2023-03-01T12:28:31;26.00;24.70
13585;DHT22;6863;48.402;9.994;2023-03-01T12:42:20;27.50;23.10
13585;DHT22;6863;48.402;9.994;2023-03-01T12:50:18;28.00;22.40
13585;DHT22;6863;48.402;9.994;2023-03-01T12:52:57;26.90;22.90
13585;DHT22;6863;48.402;9.994;2023-03-01T12:55:37;26.20;23.50
13585;DHT22;6863;48.402;9.994;2023-03-01T13:09:07;26.70;23.00
13585;DHT22;6863;48.402;9.994;2023-03-01T13:11:35;25.40;23.80
13585;DHT22;6863;48.402;9.994;2023-03-01T13:16:45;26.30;23.60
13585;DHT22;6863;48.402;9.994;2023-03-01T13:19:20;25.90;24.00
13585;DHT22;6863;48.402;9.994;2023-03-01T13:21:51;25.20;24.30
13585;DHT22;6863;48.402;9.994;2023-03-01T13:24:40;25.10;24.60
13585;DHT22;6863;48.402;9.994;2023-03-01T13:27:10;25.80;24.00
13585;DHT22;6863;48.402;9.994;2023-03-01T13:29:50;26.00;24.00
13585;DHT22;6863;48.402;9.994;2023-03-01T13:32:28;26.30;23.90
13585;DHT22;6863;48.402;9.994;2023-03-01T13:35:01;27.30;23.20
13585;DHT22;6863;48.402;9.994;2023-03-01T13:37:38;28.40;22.30
13585;DHT22;6863;48.402;9.994;2023-03-01T13:42:56;26.80;23.10
13585;DHT22;6863;48.402;9.994;2023-03-01T13:45:40;25.90;23.50
13585;DHT22;6863;48.402;9.994;2023-03-01T13:48:32;25.40;24.40
13585;DHT22;6863;48.402;9.994;2023-03-01T13:51:08;25.20;24.40
13585;DHT22;6863;48.402;9.994;2023-03-01T13:53:38;25.50;24.50
13585;DHT22;6863;48.402;9.994;2023-03-01T13:56:15;25.70;23.90
13585;DHT22;6863;48.402;9.994;2023-03-01T13:58:48;24.50;24.90
13585;DHT22;6863;48.402;9.994;2023-03-01T14:01:23;24.60;25.20
13585;DHT22;6863;48.402;9.994;2023-03-01T14:03:48;24.80;25.00
13585;DHT22;6863;48.402;9.994;2023-03-01T14:06:22;24.20;24.80
13585;DHT22;6863;48.402;9.994;2023-03-01T14:08:50;23.80;25.90
13585;DHT22;6863;48.402;9.994;2023-03-01T14:19:55;23.00;26.30
13585;DHT22;6863;48.402;9.994;2023-03-01T14:22:41;23.00;26.70
13585;DHT22;6863;48.402;9.994;2023-03-01T14:25:26;24.20;26.00
13585;DHT22;6863;48.402;9.994;2023-03-01T14:27:58;24.40;25.10
13585;DHT22;6863;48.402;9.994;2023-03-01T14:30:43;23.60;25.90
13585;DHT22;6863;48.402;9.994;2023-03-01T14:33:37;23.00;26.00
13585;DHT22;6863;48.402;9.994;2023-03-01T14:36:13;23.10;26.40
13585;DHT22;6863;48.402;9.994;2023-03-01T14:38:45;23.60;25.90
13585;DHT22;6863;48.402;9.994;2023-03-01T14:41:17;23.00;25.80
13585;DHT22;6863;48.402;9.994;2023-03-01T14:44:07;22.80;26.40
13585;DHT22;6863;48.402;9.994;2023-03-01T14:46:42;22.70;26.50
13585;DHT22;6863;48.402;9.994;2023-03-01T14:49:19;22.20;27.00
13585;DHT22;6863;48.402;9.994;2023-03-01T14:52:17;21.40;27.00
13585;DHT22;6863;48.402;9.994;2023-03-01T14:54:47;19.50;28.50
13585;DHT22;6863;48.402;9.994;2023-03-01T14:57:19;18.70;29.40
13585;DHT22;6863;48.402;9.994;2023-03-01T14:59:47;17.60;30.80
13585;DHT22;6863;48.402;9.994;2023-03-01T15:02:19;17.90;31.80
13585;DHT22;6863;48.402;9.994;2023-03-01T15:04:48;18.60;30.90
13585;DHT22;6863;48.402;9.994;2023-03-01T15:07:14;20.20;29.80
13585;DHT22;6863;48.402;9.994;2023-03-01T15:09:40;20.20;28.90
13585;DHT22;6863;48.402;9.994;2023-03-01T15:12:35;20.10;28.50
13585;DHT22;6863;48.402;9.994;2023-03-01T15:15:02;19.50;29.00
13585;DHT22;6863;48.402;9.994;2023-03-01T15:17:53;19.40;29.40
13585;DHT22;6863;48.402;9.994;2023-03-01T15:22:55;19.90;29.40
13585;DHT22;6863;48.402;9.994;2023-03-01T15:25:26;20.50;28.80
13585;DHT22;6863;48.402;9.994;2023-03-01T15:28:00;19.70;28.60
13585;DHT22;6863;48.402;9.994;2023-03-01T15:30:33;18.30;30.40
13585;DHT22;6863;48.402;9.994;2023-03-01T15:33:20;18.10;30.50
13585;DHT22;6863;48.402;9.994;2023-03-01T15:35:54;18.00;31.20
13585;DHT22;6863;48.402;9.994;2023-03-01T15:38:35;17.30;31.60
13585;DHT22;6863;48.402;9.994;2023-03-01T15:41:31;17.20;32.10
13585;DHT22;6863;48.402;9.994;2023-03-01T15:43:59;17.00;32.60
13585;DHT22;6863;48.402;9.994;2023-03-01T15:46:31;16.50;33.40
13585;DHT22;6863;48.402;9.994;2023-03-01T15:49:03;16.60;33.10
13585;DHT22;6863;48.402;9.994;2023-03-01T15:54:22;16.00;34.00
13585;DHT22;6863;48.402;9.994;2023-03-01T15:56:49;15.90;34.30
13585;DHT22;6863;48.402;9.994;2023-03-01T15:59:18;15.70;34.70
13585;DHT22;6863;48.402;9.994;2023-03-01T16:01:48;14.90;35.70
13585;DHT22;6863;48.402;9.994;2023-03-01T16:04:16;14.20;36.70
13585;DHT22;6863;48.402;9.994;2023-03-01T16:06:52;13.50;37.80
13585;DHT22;6863;48.402;9.994;2023-03-01T16:09:24;13.20;38.70
13585;DHT22;6863;48.402;9.994;2023-03-01T16:11:52;12.20;39.70
13585;DHT22;6863;48.402;9.994;2023-03-01T16:14:18;12.20;41.10
13585;DHT22;6863;48.402;9.994;2023-03-01T16:16:44;12.00;41.00
13585;DHT22;6863;48.402;9.994;2023-03-01T16:19:10;11.40;42.00
13585;DHT22;6863;48.402;9.994;2023-03-01T16:21:37;11.40;42.40
13585;DHT22;6863;48.402;9.994;2023-03-01T16:24:03;10.90;43.00
13585;DHT22;6863;48.402;9.994;2023-03-01T16:26:29;10.40;44.30
13585;DHT22;6863;48.402;9.994;2023-03-01T16:28:56;9.80;46.40
13585;DHT22;6863;48.402;9.994;2023-03-01T16:31:22;8.90;47.90
13585;DHT22;6863;48.402;9.994;2023-03-01T16:33:49;8.30;49.90
13585;DHT22;6863;48.402;9.994;2023-03-01T16:36:18;7.90;51.10
13585;DHT22;6863;48.402;9.994;2023-03-01T16:38:44;7.80;51.80
13585;DHT22;6863;48.402;9.994;2023-03-01T16:41:15;7.70;52.20
13585;DHT22;6863;48.402;9.994;2023-03-01T16:43:40;7.60;53.00
13585;DHT22;6863;48.402;9.994;2023-03-01T16:46:14;7.40;53.50
13585;DHT22;6863;48.402;9.994;2023-03-01T16:48:40;7.20;54.20
13585;DHT22;6863;48.402;9.994;2023-03-01T16:51:07;7.00;54.90
13585;DHT22;6863;48.402;9.994;2023-03-01T16:53:33;6.90;55.60
13585;DHT22;6863;48.402;9.994;2023-03-01T16:56:02;6.70;56.20
13585;DHT22;6863;48.402;9.994;2023-03-01T16:58:27;6.50;56.90
13585;DHT22;6863;48.402;9.994;2023-03-01T17:00:54;6.50;57.50
13585;DHT22;6863;48.402;9.994;2023-03-01T17:03:24;6.40;58.40
13585;DHT22;6863;48.402;9.994;2023-03-01T17:05:51;6.40;58.30
13585;DHT22;6863;48.402;9.994;2023-03-01T17:08:17;6.40;58.80
13585;DHT22;6863;48.402;9.994;2023-03-01T17:10:43;6.30;59.20
13585;DHT22;6863;48.402;9.994;2023-03-01T17:13:09;6.20;59.80
13585;DHT22;6863;48.402;9.994;2023-03-01T17:15:38;6.10;60.40
13585;DHT22;6863;48.402;9.994;2023-03-01T17:18:05;6.00;61.10
13585;DHT22;6863;48.402;9.994;2023-03-01T17:20:30;5.90;62.10
13585;DHT22;6863;48.402;9.994;2023-03-01T17:22:56;5.90;63.00
13585;DHT22;6863;48.402;9.994;2023-03-01T17:25:21;5.90;63.80
13585;DHT22;6863;48.402;9.994;2023-03-01T17:27:47;5.70;64.50
13585;DHT22;6863;48.402;9.994;2023-03-01T17:30:13;5.70;65.60
13585;DHT22;6863;48.402;9.994;2023-03-01T17:32:39;5.60;66.40
13585;DHT22;6863;48.402;9.994;2023-03-01T17:35:06;5.60;67.40
13585;DHT22;6863;48.402;9.994;2023-03-01T17:37:32;5.50;68.30
13585;DHT22;6863;48.402;9.994;2023-03-01T17:39:58;5.50;68.90
13585;DHT22;6863;48.402;9.994;2023-03-01T17:42:23;5.50;69.70
13585;DHT22;6863;48.402;9.994;2023-03-01T17:44:49;5.60;70.10
13585;DHT22;6863;48.402;9.994;2023-03-01T17:47:15;5.60;70.40
13585;DHT22;6863;48.402;9.994;2023-03-01T17:49:40;5.60;70.80
13585;DHT22;6863;48.402;9.994;2023-03-01T17:52:06;5.60;71.10
13585;DHT22;6863;48.402;9.994;2023-03-01T17:54:31;5.60;71.80
13585;DHT22;6863;48.402;9.994;2023-03-01T17:56:58;5.70;72.30
13585;DHT22;6863;48.402;9.994;2023-03-01T17:59:24;5.70;72.50
13585;DHT22;6863;48.402;9.994;2023-03-01T18:01:56;5.70;73.20